PWSweather.com
Personal Weather Stations
Station Observations
719732
Ponferrada, PonferradaES 24411

PonferradaPonferradaES 24411

Lat: 42.5728, Lon: -6.6425

Elevation: 1676

Station Type: PCE-FWS 20 con garita Ambient Weather SRS100LX

www.meteo.spyfly.es

High Low Average
Temperature 64.8°F18.2°C 40.6°F4.8°C 52.8°F11.6°C
Dew Point 52.6°F11.4°C 40.4°F4.7°C 46.8°F8.2°C
Winds 9.8 mph 15.8 kmh Calm Calm 3.0 mph SSW4.8 kmh SSW
Wind Gusts 15.2 mph24.5 kmh -- 6.0 mph9.7 kmh
Humidity 99% 56% 82%
Pressure 30.47 in1031.8 mb 30.39 in1029.1 mb -
Precipitation 0.00 in0.0 mm - -
Hour Temp Dew Point Humidity Winds Wind Gusts Pressure Precip Precip Rate Daily Precip Total
12:00 AM 48.4°F9.1°C 46.5°F8.1°C 93% Calm Calm 3.1 mph5.0 kmh 30.41 in1029.8 mb 0.00 in0.0 mm 0.00 in0.0 mm 0.00 in0.0 mm
12:05 AM 48.4°F9.1°C 46.5°F8.1°C 93% Calm Calm 3.1 mph5.0 kmh 30.41 in1029.8 mb 0.00 in0.0 mm 0.00 in0.0 mm 0.00 in0.0 mm
12:10 AM 47.8°F8.8°C 46.5°F8.1°C 95% 1.6 mph ENE2.6 kmh ENE 2.2 mph3.5 kmh 30.41 in1029.8 mb 0.00 in0.0 mm 0.00 in0.0 mm 0.00 in0.0 mm
12:15 AM 47.8°F8.8°C 46.5°F8.1°C 95% 2.2 mph E3.5 kmh E 3.1 mph5.0 kmh 30.41 in1029.8 mb 0.00 in0.0 mm 0.00 in0.0 mm 0.00 in0.0 mm
12:20 AM 47.8°F8.8°C 46.8°F8.2°C 96% 0.7 mph ENE1.1 kmh ENE 3.1 mph5.0 kmh 30.41 in1029.8 mb 0.00 in0.0 mm 0.00 in0.0 mm 0.00 in0.0 mm
12:25 AM 47.8°F8.8°C 46.8°F8.2°C 96% 1.6 mph ENE2.6 kmh ENE 3.1 mph5.0 kmh 30.41 in1029.8 mb 0.00 in0.0 mm 0.00 in0.0 mm 0.00 in0.0 mm
12:30 AM 47.7°F8.7°C 46.6°F8.1°C 96% 3.1 mph E5.0 kmh E 3.8 mph6.1 kmh 30.41 in1029.8 mb 0.00 in0.0 mm 0.00 in0.0 mm 0.00 in0.0 mm
12:35 AM 47.5°F8.6°C 46.4°F8.0°C 96% 1.6 mph E2.6 kmh E 3.8 mph6.1 kmh 30.41 in1029.8 mb 0.00 in0.0 mm 0.00 in0.0 mm 0.00 in0.0 mm
12:40 AM 47.3°F8.5°C 46.2°F7.9°C 96% 1.6 mph E2.6 kmh E 3.8 mph6.1 kmh 30.41 in1029.8 mb 0.00 in0.0 mm 0.00 in0.0 mm 0.00 in0.0 mm
12:45 AM 47.3°F8.5°C 46.2°F7.9°C 96% 2.2 mph E3.5 kmh E 3.1 mph5.0 kmh 30.41 in1029.8 mb 0.00 in0.0 mm 0.00 in0.0 mm 0.00 in0.0 mm
12:50 AM 47.1°F8.4°C 46.0°F7.8°C 96% 1.6 mph E2.6 kmh E 3.1 mph5.0 kmh 30.41 in1029.8 mb 0.00 in0.0 mm 0.00 in0.0 mm 0.00 in0.0 mm
12:55 AM 47.1°F8.4°C 46.0°F7.8°C 96% 0.7 mph E1.1 kmh E 2.2 mph3.5 kmh 30.41 in1029.8 mb 0.00 in0.0 mm 0.00 in0.0 mm 0.00 in0.0 mm
01:00 AM 46.9°F8.3°C 46.1°F7.8°C 97% 1.6 mph E2.6 kmh E 2.2 mph3.5 kmh 30.41 in1029.8 mb 0.00 in0.0 mm 0.00 in0.0 mm 0.00 in0.0 mm
01:05 AM 46.9°F8.3°C 46.1°F7.8°C 97% 1.6 mph ENE2.6 kmh ENE 2.2 mph3.5 kmh 30.41 in1029.8 mb 0.00 in0.0 mm 0.00 in0.0 mm 0.00 in0.0 mm
01:10 AM 46.8°F8.2°C 46.0°F7.8°C 97% Calm Calm 2.2 mph3.5 kmh 30.41 in1029.8 mb 0.00 in0.0 mm 0.00 in0.0 mm 0.00 in0.0 mm
01:15 AM 46.4°F8.0°C 45.6°F7.6°C 97% Calm Calm 2.2 mph3.5 kmh 30.41 in1029.8 mb 0.00 in0.0 mm 0.00 in0.0 mm 0.00 in0.0 mm
01:20 AM 46.2°F7.9°C 45.4°F7.4°C 97% Calm Calm 1.6 mph2.6 kmh 30.41 in1029.8 mb 0.00 in0.0 mm 0.00 in0.0 mm 0.00 in0.0 mm
01:25 AM 46.0°F7.8°C 45.2°F7.3°C 97% 0.7 mph ENE1.1 kmh ENE 2.2 mph3.5 kmh 30.41 in1029.8 mb 0.00 in0.0 mm 0.00 in0.0 mm 0.00 in0.0 mm
01:30 AM 45.9°F7.7°C 45.1°F7.3°C 97% 0.7 mph ENE1.1 kmh ENE 2.2 mph3.5 kmh 30.40 in1029.5 mb 0.00 in0.0 mm 0.00 in0.0 mm 0.00 in0.0 mm
01:35 AM 45.7°F7.6°C 44.9°F7.2°C 97% 1.6 mph ENE2.6 kmh ENE 2.2 mph3.5 kmh 30.41 in1029.8 mb 0.00 in0.0 mm 0.00 in0.0 mm 0.00 in0.0 mm
01:40 AM 45.9°F7.7°C 45.1°F7.3°C 97% 1.6 mph E2.6 kmh E 3.1 mph5.0 kmh 30.41 in1029.8 mb 0.00 in0.0 mm 0.00 in0.0 mm 0.00 in0.0 mm
01:45 AM 45.9°F7.7°C 45.1°F7.3°C 97% 1.6 mph E2.6 kmh E 3.1 mph5.0 kmh 30.40 in1029.5 mb 0.00 in0.0 mm 0.00 in0.0 mm 0.00 in0.0 mm
01:50 AM 45.7°F7.6°C 44.9°F7.2°C 97% 1.6 mph E2.6 kmh E 3.1 mph5.0 kmh 30.40 in1029.5 mb 0.00 in0.0 mm 0.00 in0.0 mm 0.00 in0.0 mm
01:55 AM 45.7°F7.6°C 44.9°F7.2°C 97% 1.6 mph E2.6 kmh E 2.2 mph3.5 kmh 30.41 in1029.8 mb 0.00 in0.0 mm 0.00 in0.0 mm 0.00 in0.0 mm
02:00 AM 45.5°F7.5°C 44.7°F7.1°C 97% 1.6 mph E2.6 kmh E 2.2 mph3.5 kmh 30.41 in1029.8 mb 0.00 in0.0 mm 0.00 in0.0 mm 0.00 in0.0 mm
02:05 AM 45.5°F7.5°C 44.7°F7.1°C 97% 2.2 mph E3.5 kmh E 3.1 mph5.0 kmh 30.41 in1029.8 mb 0.00 in0.0 mm 0.00 in0.0 mm 0.00 in0.0 mm
02:10 AM 45.5°F7.5°C 44.7°F7.1°C 97% 2.2 mph E3.5 kmh E 3.1 mph5.0 kmh 30.41 in1029.8 mb 0.00 in0.0 mm 0.00 in0.0 mm 0.00 in0.0 mm
02:15 AM 45.5°F7.5°C 44.7°F7.1°C 97% 1.6 mph ESE2.6 kmh ESE 3.1 mph5.0 kmh 30.41 in1029.8 mb 0.00 in0.0 mm 0.00 in0.0 mm 0.00 in0.0 mm
02:20 AM 45.3°F7.4°C 44.5°F6.9°C 97% 0.7 mph ESE1.1 kmh ESE 3.1 mph5.0 kmh 30.41 in1029.8 mb 0.00 in0.0 mm 0.00 in0.0 mm 0.00 in0.0 mm
02:25 AM 45.3°F7.4°C 44.5°F6.9°C 97% 0.7 mph ESE1.1 kmh ESE 3.1 mph5.0 kmh 30.41 in1029.8 mb 0.00 in0.0 mm 0.00 in0.0 mm 0.00 in0.0 mm
02:30 AM 45.1°F7.3°C 44.3°F6.8°C 97% 0.7 mph E1.1 kmh E 3.1 mph5.0 kmh 30.41 in1029.8 mb 0.00 in0.0 mm 0.00 in0.0 mm 0.00 in0.0 mm
02:35 AM 45.0°F7.2°C 44.2°F6.8°C 97% 0.7 mph ENE1.1 kmh ENE 2.2 mph3.5 kmh 30.41 in1029.8 mb 0.00 in0.0 mm 0.00 in0.0 mm 0.00 in0.0 mm
02:40 AM 44.6°F7.0°C 43.8°F6.6°C 97% 0.7 mph NE1.1 kmh NE 2.2 mph3.5 kmh 30.40 in1029.5 mb 0.00 in0.0 mm 0.00 in0.0 mm 0.00 in0.0 mm
02:45 AM 44.2°F6.8°C 43.7°F6.5°C 98% 0.7 mph ENE1.1 kmh ENE 2.2 mph3.5 kmh 30.40 in1029.5 mb 0.00 in0.0 mm 0.00 in0.0 mm 0.00 in0.0 mm
02:50 AM 44.1°F6.7°C 43.5°F6.4°C 98% Calm Calm 2.2 mph3.5 kmh 30.41 in1029.8 mb 0.00 in0.0 mm 0.00 in0.0 mm 0.00 in0.0 mm
02:55 AM 44.1°F6.7°C 43.5°F6.4°C 98% Calm Calm 2.2 mph3.5 kmh 30.40 in1029.5 mb 0.00 in0.0 mm 0.00 in0.0 mm 0.00 in0.0 mm
03:00 AM 43.5°F6.4°C 43.0°F6.1°C 98% 0.7 mph NE1.1 kmh NE 2.2 mph3.5 kmh 30.40 in1029.5 mb 0.00 in0.0 mm 0.00 in0.0 mm 0.00 in0.0 mm
03:05 AM 43.3°F6.3°C 42.8°F6.0°C 98% 1.6 mph NE2.6 kmh NE 2.2 mph3.5 kmh 30.40 in1029.5 mb 0.00 in0.0 mm 0.00 in0.0 mm 0.00 in0.0 mm
03:10 AM 43.0°F6.1°C 42.5°F5.8°C 98% 0.7 mph NE1.1 kmh NE 2.2 mph3.5 kmh 30.40 in1029.5 mb 0.00 in0.0 mm 0.00 in0.0 mm 0.00 in0.0 mm
03:15 AM 43.0°F6.1°C 42.5°F5.8°C 98% 0.7 mph NE1.1 kmh NE 3.1 mph5.0 kmh 30.40 in1029.5 mb 0.00 in0.0 mm 0.00 in0.0 mm 0.00 in0.0 mm
03:20 AM 43.0°F6.1°C 42.5°F5.8°C 98% 1.6 mph NE2.6 kmh NE 3.1 mph5.0 kmh 30.40 in1029.5 mb 0.00 in0.0 mm 0.00 in0.0 mm 0.00 in0.0 mm
03:25 AM 43.0°F6.1°C 42.5°F5.8°C 98% 0.7 mph NE1.1 kmh NE 3.1 mph5.0 kmh 30.39 in1029.1 mb 0.00 in0.0 mm 0.00 in0.0 mm 0.00 in0.0 mm
03:30 AM 43.0°F6.1°C 42.5°F5.8°C 98% 1.6 mph E2.6 kmh E 3.1 mph5.0 kmh 30.40 in1029.5 mb 0.00 in0.0 mm 0.00 in0.0 mm 0.00 in0.0 mm
03:35 AM 43.2°F6.2°C 42.6°F5.9°C 98% 0.7 mph E1.1 kmh E 3.1 mph5.0 kmh 30.40 in1029.5 mb 0.00 in0.0 mm 0.00 in0.0 mm 0.00 in0.0 mm
03:40 AM 43.3°F6.3°C 42.8°F6.0°C 98% 1.6 mph ENE2.6 kmh ENE 3.1 mph5.0 kmh 30.39 in1029.1 mb 0.00 in0.0 mm 0.00 in0.0 mm 0.00 in0.0 mm
03:50 AM 43.3°F6.3°C 42.8°F6.0°C 98% 0.7 mph E1.1 kmh E 2.2 mph3.5 kmh 30.39 in1029.1 mb 0.00 in0.0 mm 0.00 in0.0 mm 0.00 in0.0 mm
03:55 AM 43.2°F6.2°C 42.6°F5.9°C 98% 1.6 mph E2.6 kmh E 3.1 mph5.0 kmh 30.39 in1029.1 mb 0.00 in0.0 mm 0.00 in0.0 mm 0.00 in0.0 mm
04:00 AM 43.2°F6.2°C 42.6°F5.9°C 98% 1.6 mph E2.6 kmh E 3.1 mph5.0 kmh 30.40 in1029.5 mb 0.00 in0.0 mm 0.00 in0.0 mm 0.00 in0.0 mm
04:05 AM 43.2°F6.2°C 42.6°F5.9°C 98% 1.6 mph E2.6 kmh E 3.1 mph5.0 kmh 30.40 in1029.5 mb 0.00 in0.0 mm 0.00 in0.0 mm 0.00 in0.0 mm
04:10 AM 43.0°F6.1°C 42.5°F5.8°C 98% 2.2 mph E3.5 kmh E 3.1 mph5.0 kmh 30.40 in1029.5 mb 0.00 in0.0 mm 0.00 in0.0 mm 0.00 in0.0 mm
04:15 AM 43.0°F6.1°C 42.5°F5.8°C 98% 0.7 mph ESE1.1 kmh ESE 3.1 mph5.0 kmh 30.39 in1029.1 mb 0.00 in0.0 mm 0.00 in0.0 mm 0.00 in0.0 mm
04:20 AM 43.0°F6.1°C 42.5°F5.8°C 98% Calm Calm 3.1 mph5.0 kmh 30.39 in1029.1 mb 0.00 in0.0 mm 0.00 in0.0 mm 0.00 in0.0 mm
04:25 AM 43.0°F6.1°C 42.5°F5.8°C 98% 0.7 mph E1.1 kmh E 2.2 mph3.5 kmh 30.39 in1029.1 mb 0.00 in0.0 mm 0.00 in0.0 mm 0.00 in0.0 mm
04:30 AM 43.0°F6.1°C 42.5°F5.8°C 98% Calm Calm 1.6 mph2.6 kmh 30.39 in1029.1 mb 0.00 in0.0 mm 0.00 in0.0 mm 0.00 in0.0 mm
04:35 AM 42.8°F6.0°C 42.3°F5.7°C 98% Calm Calm 1.6 mph2.6 kmh 30.39 in1029.1 mb 0.00 in0.0 mm 0.00 in0.0 mm 0.00 in0.0 mm
04:40 AM 42.6°F5.9°C 42.4°F5.8°C 99% 0.7 mph SE1.1 kmh SE 1.6 mph2.6 kmh 30.39 in1029.1 mb 0.00 in0.0 mm 0.00 in0.0 mm 0.00 in0.0 mm
04:45 AM 42.1°F5.6°C 41.8°F5.4°C 99% 0.7 mph N1.1 kmh N 2.2 mph3.5 kmh 30.39 in1029.1 mb 0.00 in0.0 mm 0.00 in0.0 mm 0.00 in0.0 mm
04:50 AM 41.7°F5.4°C 41.5°F5.3°C 99% Calm Calm 2.2 mph3.5 kmh 30.39 in1029.1 mb 0.00 in0.0 mm 0.00 in0.0 mm 0.00 in0.0 mm
04:55 AM 41.4°F5.2°C 41.1°F5.1°C 99% Calm Calm 2.2 mph3.5 kmh 30.39 in1029.1 mb 0.00 in0.0 mm 0.00 in0.0 mm 0.00 in0.0 mm
05:00 AM 41.2°F5.1°C 40.9°F4.9°C 99% Calm Calm 1.6 mph2.6 kmh 30.40 in1029.5 mb 0.00 in0.0 mm 0.00 in0.0 mm 0.00 in0.0 mm
05:05 AM 40.8°F4.9°C 40.6°F4.8°C 99% Calm Calm 1.6 mph2.6 kmh 30.40 in1029.5 mb 0.00 in0.0 mm 0.00 in0.0 mm 0.00 in0.0 mm
05:10 AM 40.8°F4.9°C 40.6°F4.8°C 99% Calm Calm 1.6 mph2.6 kmh 30.40 in1029.5 mb 0.00 in0.0 mm 0.00 in0.0 mm 0.00 in0.0 mm
05:15 AM 40.6°F4.8°C 40.4°F4.7°C 99% Calm Calm 1.6 mph2.6 kmh 30.40 in1029.5 mb 0.00 in0.0 mm 0.00 in0.0 mm 0.00 in0.0 mm
05:20 AM 40.8°F4.9°C 40.6°F4.8°C 99% 0.7 mph SE1.1 kmh SE 2.2 mph3.5 kmh 30.40 in1029.5 mb 0.00 in0.0 mm 0.00 in0.0 mm 0.00 in0.0 mm
05:25 AM 41.0°F5.0°C 40.7°F4.8°C 99% Calm Calm 2.2 mph3.5 kmh 30.40 in1029.5 mb 0.00 in0.0 mm 0.00 in0.0 mm 0.00 in0.0 mm
05:30 AM 41.4°F5.2°C 41.1°F5.1°C 99% 1.6 mph SE2.6 kmh SE 2.2 mph3.5 kmh 30.40 in1029.5 mb 0.00 in0.0 mm 0.00 in0.0 mm 0.00 in0.0 mm
05:35 AM 41.4°F5.2°C 41.1°F5.1°C 99% 0.7 mph SE1.1 kmh SE 3.1 mph5.0 kmh 30.41 in1029.8 mb 0.00 in0.0 mm 0.00 in0.0 mm 0.00 in0.0 mm
05:40 AM 41.5°F5.3°C 41.3°F5.2°C 99% Calm Calm 3.1 mph5.0 kmh 30.41 in1029.8 mb 0.00 in0.0 mm 0.00 in0.0 mm 0.00 in0.0 mm
05:45 AM 41.4°F5.2°C 41.1°F5.1°C 99% Calm Calm 2.2 mph3.5 kmh 30.41 in1029.8 mb 0.00 in0.0 mm 0.00 in0.0 mm 0.00 in0.0 mm
05:50 AM 41.5°F5.3°C 41.3°F5.2°C 99% 0.7 mph SE1.1 kmh SE 3.1 mph5.0 kmh 30.41 in1029.8 mb 0.00 in0.0 mm 0.00 in0.0 mm 0.00 in0.0 mm
05:55 AM 41.7°F5.4°C 41.5°F5.3°C 99% Calm Calm 3.1 mph5.0 kmh 30.41 in1029.8 mb 0.00 in0.0 mm 0.00 in0.0 mm 0.00 in0.0 mm
06:00 AM 41.5°F5.3°C 41.3°F5.2°C 99% Calm Calm 2.2 mph3.5 kmh 30.41 in1029.8 mb 0.00 in0.0 mm 0.00 in0.0 mm 0.00 in0.0 mm
06:05 AM 41.4°F5.2°C 41.1°F5.1°C 99% 0.7 mph N1.1 kmh N 3.1 mph5.0 kmh 30.41 in1029.8 mb 0.00 in0.0 mm 0.00 in0.0 mm 0.00 in0.0 mm
06:10 AM 40.8°F4.9°C 40.6°F4.8°C 99% 3.1 mph N5.0 kmh N 4.5 mph7.2 kmh 30.41 in1029.8 mb 0.00 in0.0 mm 0.00 in0.0 mm 0.00 in0.0 mm
06:15 AM 40.6°F4.8°C 40.4°F4.7°C 99% 0.7 mph NNE1.1 kmh NNE 4.5 mph7.2 kmh 30.41 in1029.8 mb 0.00 in0.0 mm 0.00 in0.0 mm 0.00 in0.0 mm
06:20 AM 40.6°F4.8°C 40.4°F4.7°C 99% 1.6 mph NNE2.6 kmh NNE 4.5 mph7.2 kmh 30.41 in1029.8 mb 0.00 in0.0 mm 0.00 in0.0 mm 0.00 in0.0 mm
06:25 AM 41.0°F5.0°C 40.7°F4.8°C 99% Calm Calm 3.8 mph6.1 kmh 30.41 in1029.8 mb 0.00 in0.0 mm 0.00 in0.0 mm 0.00 in0.0 mm
06:30 AM 41.2°F5.1°C 40.9°F4.9°C 99% Calm Calm 2.2 mph3.5 kmh 30.41 in1029.8 mb 0.00 in0.0 mm 0.00 in0.0 mm 0.00 in0.0 mm
06:35 AM 41.2°F5.1°C 40.9°F4.9°C 99% 0.7 mph NNE1.1 kmh NNE 2.2 mph3.5 kmh 30.41 in1029.8 mb 0.00 in0.0 mm 0.00 in0.0 mm 0.00 in0.0 mm
06:40 AM 41.2°F5.1°C 40.9°F4.9°C 99% Calm Calm 2.2 mph3.5 kmh 30.41 in1029.8 mb 0.00 in0.0 mm 0.00 in0.0 mm 0.00 in0.0 mm
06:45 AM 41.2°F5.1°C 40.9°F4.9°C 99% 1.6 mph N2.6 kmh N 2.2 mph3.5 kmh 30.41 in1029.8 mb 0.00 in0.0 mm 0.00 in0.0 mm 0.00 in0.0 mm
06:50 AM 41.2°F5.1°C 40.9°F4.9°C 99% 1.6 mph NE2.6 kmh NE 3.1 mph5.0 kmh 30.42 in1030.1 mb 0.00 in0.0 mm 0.00 in0.0 mm 0.00 in0.0 mm
06:55 AM 41.4°F5.2°C 41.1°F5.1°C 99% 0.7 mph NE1.1 kmh NE 3.1 mph5.0 kmh 30.42 in1030.1 mb 0.00 in0.0 mm 0.00 in0.0 mm 0.00 in0.0 mm
07:00 AM 41.5°F5.3°C 41.3°F5.2°C 99% Calm Calm 2.2 mph3.5 kmh 30.42 in1030.1 mb 0.00 in0.0 mm 0.00 in0.0 mm 0.00 in0.0 mm
07:05 AM 41.7°F5.4°C 41.5°F5.3°C 99% Calm Calm 2.2 mph3.5 kmh 30.42 in1030.1 mb 0.00 in0.0 mm 0.00 in0.0 mm 0.00 in0.0 mm
07:10 AM 41.9°F5.5°C 41.6°F5.3°C 99% 1.6 mph NE2.6 kmh NE 2.2 mph3.5 kmh 30.42 in1030.1 mb 0.00 in0.0 mm 0.00 in0.0 mm 0.00 in0.0 mm
07:15 AM 42.3°F5.7°C 42.0°F5.6°C 99% 1.6 mph E2.6 kmh E 2.2 mph3.5 kmh 30.43 in1030.5 mb 0.00 in0.0 mm 0.00 in0.0 mm 0.00 in0.0 mm
07:20 AM 42.3°F5.7°C 42.0°F5.6°C 99% 2.2 mph E3.5 kmh E 3.8 mph6.1 kmh 30.43 in1030.5 mb 0.00 in0.0 mm 0.00 in0.0 mm 0.00 in0.0 mm
07:25 AM 42.3°F5.7°C 42.0°F5.6°C 99% 3.1 mph E5.0 kmh E 3.8 mph6.1 kmh 30.42 in1030.1 mb 0.00 in0.0 mm 0.00 in0.0 mm 0.00 in0.0 mm
07:30 AM 42.4°F5.8°C 42.2°F5.7°C 99% 2.2 mph ESE3.5 kmh ESE 3.8 mph6.1 kmh 30.43 in1030.5 mb 0.00 in0.0 mm 0.00 in0.0 mm 0.00 in0.0 mm
07:35 AM 42.6°F5.9°C 42.4°F5.8°C 99% 2.2 mph SE3.5 kmh SE 3.8 mph6.1 kmh 30.43 in1030.5 mb 0.00 in0.0 mm 0.00 in0.0 mm 0.00 in0.0 mm
07:40 AM 42.8°F6.0°C 42.3°F5.7°C 98% 1.6 mph SE2.6 kmh SE 3.8 mph6.1 kmh 30.43 in1030.5 mb 0.00 in0.0 mm 0.00 in0.0 mm 0.00 in0.0 mm
07:45 AM 43.0°F6.1°C 42.5°F5.8°C 98% 0.7 mph E1.1 kmh E 3.1 mph5.0 kmh 30.43 in1030.5 mb 0.00 in0.0 mm 0.00 in0.0 mm 0.00 in0.0 mm
07:50 AM 43.2°F6.2°C 42.6°F5.9°C 98% Calm Calm 1.6 mph2.6 kmh 30.43 in1030.5 mb 0.00 in0.0 mm 0.00 in0.0 mm 0.00 in0.0 mm
07:55 AM 43.3°F6.3°C 42.8°F6.0°C 98% 1.6 mph NE2.6 kmh NE 2.2 mph3.5 kmh 30.43 in1030.5 mb 0.00 in0.0 mm 0.00 in0.0 mm 0.00 in0.0 mm
08:00 AM 43.3°F6.3°C 42.8°F6.0°C 98% 1.6 mph N2.6 kmh N 2.2 mph3.5 kmh 30.43 in1030.5 mb 0.00 in0.0 mm 0.00 in0.0 mm 0.00 in0.0 mm
08:05 AM 43.2°F6.2°C 42.6°F5.9°C 98% Calm Calm 2.2 mph3.5 kmh 30.43 in1030.5 mb 0.00 in0.0 mm 0.00 in0.0 mm 0.00 in0.0 mm
08:10 AM 43.2°F6.2°C 42.6°F5.9°C 98% 0.7 mph NW1.1 kmh NW 2.2 mph3.5 kmh 30.43 in1030.5 mb 0.00 in0.0 mm 0.00 in0.0 mm 0.00 in0.0 mm
08:15 AM 43.0°F6.1°C 42.5°F5.8°C 98% Calm Calm 2.2 mph3.5 kmh 30.43 in1030.5 mb 0.00 in0.0 mm 0.00 in0.0 mm 0.00 in0.0 mm
08:20 AM 43.2°F6.2°C 42.6°F5.9°C 98% Calm Calm 2.2 mph3.5 kmh 30.43 in1030.5 mb 0.00 in0.0 mm 0.00 in0.0 mm 0.00 in0.0 mm
08:25 AM 43.3°F6.3°C 42.8°F6.0°C 98% 0.7 mph W1.1 kmh W 1.6 mph2.6 kmh 30.43 in1030.5 mb 0.00 in0.0 mm 0.00 in0.0 mm 0.00 in0.0 mm
08:30 AM 43.3°F6.3°C 42.8°F6.0°C 98% 0.7 mph W1.1 kmh W 2.2 mph3.5 kmh 30.43 in1030.5 mb 0.00 in0.0 mm 0.00 in0.0 mm 0.00 in0.0 mm
08:35 AM 43.2°F6.2°C 42.6°F5.9°C 98% 0.7 mph WNW1.1 kmh WNW 3.1 mph5.0 kmh 30.43 in1030.5 mb 0.00 in0.0 mm 0.00 in0.0 mm 0.00 in0.0 mm
08:40 AM 43.2°F6.2°C 42.6°F5.9°C 98% 0.7 mph W1.1 kmh W 3.1 mph5.0 kmh 30.43 in1030.5 mb 0.00 in0.0 mm 0.00 in0.0 mm 0.00 in0.0 mm
08:45 AM 43.3°F6.3°C 42.8°F6.0°C 98% 1.6 mph W2.6 kmh W 3.1 mph5.0 kmh 30.45 in1031.2 mb 0.00 in0.0 mm 0.00 in0.0 mm 0.00 in0.0 mm
08:50 AM 43.5°F6.4°C 43.0°F6.1°C 98% Calm Calm 3.1 mph5.0 kmh 30.44 in1030.8 mb 0.00 in0.0 mm 0.00 in0.0 mm 0.00 in0.0 mm
08:55 AM 43.7°F6.5°C 43.2°F6.2°C 98% 0.7 mph NW1.1 kmh NW 1.6 mph2.6 kmh 30.44 in1030.8 mb 0.00 in0.0 mm 0.00 in0.0 mm 0.00 in0.0 mm
09:00 AM 43.9°F6.6°C 43.4°F6.3°C 98% 0.7 mph W1.1 kmh W 2.2 mph3.5 kmh 30.44 in1030.8 mb 0.00 in0.0 mm 0.00 in0.0 mm 0.00 in0.0 mm
09:05 AM 44.1°F6.7°C 43.5°F6.4°C 98% 0.7 mph WNW1.1 kmh WNW 2.2 mph3.5 kmh 30.45 in1031.2 mb 0.00 in0.0 mm 0.00 in0.0 mm 0.00 in0.0 mm
09:10 AM 44.2°F6.8°C 43.7°F6.5°C 98% Calm Calm 1.6 mph2.6 kmh 30.44 in1030.8 mb 0.00 in0.0 mm 0.00 in0.0 mm 0.00 in0.0 mm
09:15 AM 44.4°F6.9°C 43.9°F6.6°C 98% Calm Calm 0.7 mph1.1 kmh 30.45 in1031.2 mb 0.00 in0.0 mm 0.00 in0.0 mm 0.00 in0.0 mm
09:20 AM 44.6°F7.0°C 43.8°F6.6°C 97% Calm Calm -- 30.45 in1031.2 mb 0.00 in0.0 mm 0.00 in0.0 mm 0.00 in0.0 mm
09:25 AM 44.8°F7.1°C 44.0°F6.7°C 97% Calm Calm -- 30.45 in1031.2 mb 0.00 in0.0 mm 0.00 in0.0 mm 0.00 in0.0 mm
09:30 AM 45.1°F7.3°C 44.3°F6.8°C 97% 1.6 mph NW2.6 kmh NW 3.1 mph5.0 kmh 30.45 in1031.2 mb 0.00 in0.0 mm 0.00 in0.0 mm 0.00 in0.0 mm
09:35 AM 45.3°F7.4°C 44.5°F6.9°C 97% 0.7 mph NW1.1 kmh NW 3.1 mph5.0 kmh 30.45 in1031.2 mb 0.00 in0.0 mm 0.00 in0.0 mm 0.00 in0.0 mm
09:40 AM 45.5°F7.5°C 44.7°F7.1°C 97% 0.7 mph NW1.1 kmh NW 3.1 mph5.0 kmh 30.45 in1031.2 mb 0.00 in0.0 mm 0.00 in0.0 mm 0.00 in0.0 mm
09:45 AM 45.9°F7.7°C 45.1°F7.3°C 97% 0.7 mph NW1.1 kmh NW 3.1 mph5.0 kmh 30.45 in1031.2 mb 0.00 in0.0 mm 0.00 in0.0 mm 0.00 in0.0 mm
09:50 AM 46.2°F7.9°C 45.4°F7.4°C 97% 1.6 mph NNW2.6 kmh NNW 2.2 mph3.5 kmh 30.45 in1031.2 mb 0.00 in0.0 mm 0.00 in0.0 mm 0.00 in0.0 mm
09:55 AM 46.6°F8.1°C 46.3°F7.9°C 99% 0.7 mph NNW1.1 kmh NNW 3.1 mph5.0 kmh 30.46 in1031.5 mb 0.00 in0.0 mm 0.00 in0.0 mm 0.00 in0.0 mm
10:00 AM 46.9°F8.3°C 46.7°F8.2°C 99% 2.2 mph NW3.5 kmh NW 3.1 mph5.0 kmh 30.46 in1031.5 mb 0.00 in0.0 mm 0.00 in0.0 mm 0.00 in0.0 mm
10:05 AM 47.8°F8.8°C 47.6°F8.7°C 99% 3.1 mph NW5.0 kmh NW 5.4 mph8.7 kmh 30.46 in1031.5 mb 0.00 in0.0 mm 0.00 in0.0 mm 0.00 in0.0 mm
10:10 AM 48.9°F9.4°C 48.7°F9.3°C 99% 3.8 mph NW6.1 kmh NW 6.0 mph9.7 kmh 30.46 in1031.5 mb 0.00 in0.0 mm 0.00 in0.0 mm 0.00 in0.0 mm
10:15 AM 49.6°F9.8°C 49.4°F9.7°C 99% 3.1 mph WNW5.0 kmh WNW 7.6 mph12.2 kmh 30.46 in1031.5 mb 0.00 in0.0 mm 0.00 in0.0 mm 0.00 in0.0 mm
10:20 AM 50.0°F10.0°C 49.7°F9.8°C 99% 3.1 mph WNW5.0 kmh WNW 7.6 mph12.2 kmh 30.46 in1031.5 mb 0.00 in0.0 mm 0.00 in0.0 mm 0.00 in0.0 mm
10:25 AM 50.4°F10.2°C 50.1°F10.1°C 99% 4.5 mph WNW7.2 kmh WNW 6.9 mph11.1 kmh 30.47 in1031.8 mb 0.00 in0.0 mm 0.00 in0.0 mm 0.00 in0.0 mm
10:30 AM 50.7°F10.4°C 50.5°F10.3°C 99% 3.1 mph W5.0 kmh W 6.9 mph11.1 kmh 30.46 in1031.5 mb 0.00 in0.0 mm 0.00 in0.0 mm 0.00 in0.0 mm
10:35 AM 51.1°F10.6°C 50.8°F10.4°C 99% 3.8 mph WSW6.1 kmh WSW 6.9 mph11.1 kmh 30.46 in1031.5 mb 0.00 in0.0 mm 0.00 in0.0 mm 0.00 in0.0 mm
10:40 AM 51.4°F10.8°C 51.2°F10.7°C 99% 3.1 mph W5.0 kmh W 6.9 mph11.1 kmh 30.46 in1031.5 mb 0.00 in0.0 mm 0.00 in0.0 mm 0.00 in0.0 mm
10:45 AM 51.8°F11.0°C 51.3°F10.7°C 98% 3.8 mph W6.1 kmh W 6.9 mph11.1 kmh 30.46 in1031.5 mb 0.00 in0.0 mm 0.00 in0.0 mm 0.00 in0.0 mm
10:50 AM 52.3°F11.3°C 51.5°F10.8°C 97% 3.8 mph W6.1 kmh W 7.6 mph12.2 kmh 30.46 in1031.5 mb 0.00 in0.0 mm 0.00 in0.0 mm 0.00 in0.0 mm
10:55 AM 53.2°F11.8°C 52.1°F11.2°C 96% 3.8 mph WSW6.1 kmh WSW 7.6 mph12.2 kmh 30.46 in1031.5 mb 0.00 in0.0 mm 0.00 in0.0 mm 0.00 in0.0 mm
11:00 AM 54.5°F12.5°C 52.5°F11.4°C 93% 4.5 mph WSW7.2 kmh WSW 9.2 mph14.8 kmh 30.46 in1031.5 mb 0.00 in0.0 mm 0.00 in0.0 mm 0.00 in0.0 mm
11:05 AM 55.2°F12.9°C 52.6°F11.4°C 91% 4.5 mph WNW7.2 kmh WNW 9.2 mph14.8 kmh 30.45 in1031.2 mb 0.00 in0.0 mm 0.00 in0.0 mm 0.00 in0.0 mm
11:10 AM 55.9°F13.3°C 52.1°F11.2°C 87% 5.4 mph WSW8.7 kmh WSW 9.2 mph14.8 kmh 30.46 in1031.5 mb 0.00 in0.0 mm 0.00 in0.0 mm 0.00 in0.0 mm
11:15 AM 56.3°F13.5°C 51.9°F11.1°C 85% 4.5 mph SW7.2 kmh SW 9.2 mph14.8 kmh 30.46 in1031.5 mb 0.00 in0.0 mm 0.00 in0.0 mm 0.00 in0.0 mm
11:20 AM 56.8°F13.8°C 52.1°F11.2°C 84% 8.3 mph WSW13.4 kmh WSW 12.1 mph19.5 kmh 30.46 in1031.5 mb 0.00 in0.0 mm 0.00 in0.0 mm 0.00 in0.0 mm
11:25 AM 57.6°F14.2°C 50.8°F10.4°C 78% 8.3 mph W13.4 kmh W 12.1 mph19.5 kmh 30.46 in1031.5 mb 0.00 in0.0 mm 0.00 in0.0 mm 0.00 in0.0 mm
11:30 AM 58.3°F14.6°C 50.8°F10.4°C 76% 6.9 mph W11.1 kmh W 12.1 mph19.5 kmh 30.46 in1031.5 mb 0.00 in0.0 mm 0.00 in0.0 mm 0.00 in0.0 mm
11:35 AM 58.5°F14.7°C 50.6°F10.3°C 75% 6.9 mph W11.1 kmh W 10.7 mph17.2 kmh 30.46 in1031.5 mb 0.00 in0.0 mm 0.00 in0.0 mm 0.00 in0.0 mm
11:40 AM 58.1°F14.5°C 49.9°F9.9°C 74% 5.4 mph W8.7 kmh W 10.7 mph17.2 kmh 30.46 in1031.5 mb 0.00 in0.0 mm 0.00 in0.0 mm 0.00 in0.0 mm
11:45 AM 57.6°F14.2°C 49.3°F9.6°C 74% 5.4 mph W8.7 kmh W 9.8 mph15.8 kmh 30.46 in1031.5 mb 0.00 in0.0 mm 0.00 in0.0 mm 0.00 in0.0 mm
11:50 AM 57.7°F14.3°C 49.5°F9.7°C 74% 3.8 mph WNW6.1 kmh WNW 12.1 mph19.5 kmh 30.46 in1031.5 mb 0.00 in0.0 mm 0.00 in0.0 mm 0.00 in0.0 mm
11:55 AM 58.5°F14.7°C 49.8°F9.9°C 73% 6.9 mph WSW11.1 kmh WSW 12.1 mph19.5 kmh 30.46 in1031.5 mb 0.00 in0.0 mm 0.00 in0.0 mm 0.00 in0.0 mm
12:00 PM 58.8°F14.9°C 49.8°F9.9°C 72% 5.4 mph WSW8.7 kmh WSW 12.1 mph19.5 kmh 30.46 in1031.5 mb 0.00 in0.0 mm 0.00 in0.0 mm 0.00 in0.0 mm
12:05 PM 59.2°F15.1°C 49.4°F9.7°C 70% 5.4 mph WSW8.7 kmh WSW 11.4 mph18.3 kmh 30.45 in1031.2 mb 0.00 in0.0 mm 0.00 in0.0 mm 0.00 in0.0 mm
12:10 PM 59.4°F15.2°C 49.2°F9.6°C 69% 4.5 mph SW7.2 kmh SW 9.2 mph14.8 kmh 30.45 in1031.2 mb 0.00 in0.0 mm 0.00 in0.0 mm 0.00 in0.0 mm
12:15 PM 59.7°F15.4°C 49.2°F9.6°C 68% 4.5 mph SW7.2 kmh SW 9.2 mph14.8 kmh 30.45 in1031.2 mb 0.00 in0.0 mm 0.00 in0.0 mm 0.00 in0.0 mm
12:20 PM 59.5°F15.3°C 48.2°F9.0°C 66% 4.5 mph WSW7.2 kmh WSW 9.2 mph14.8 kmh 30.45 in1031.2 mb 0.00 in0.0 mm 0.00 in0.0 mm 0.00 in0.0 mm
12:25 PM 59.9°F15.5°C 48.9°F9.4°C 67% 4.5 mph W7.2 kmh W 9.2 mph14.8 kmh 30.45 in1031.2 mb 0.00 in0.0 mm 0.00 in0.0 mm 0.00 in0.0 mm
12:30 PM 60.3°F15.7°C 48.9°F9.4°C 66% 4.5 mph WSW7.2 kmh WSW 9.2 mph14.8 kmh 30.45 in1031.2 mb 0.00 in0.0 mm 0.00 in0.0 mm 0.00 in0.0 mm
12:35 PM 60.4°F15.8°C 48.2°F9.0°C 64% 3.1 mph SW5.0 kmh SW 9.2 mph14.8 kmh 30.45 in1031.2 mb 0.00 in0.0 mm 0.00 in0.0 mm 0.00 in0.0 mm
12:40 PM 60.6°F15.9°C 48.4°F9.1°C 64% 3.1 mph S5.0 kmh S 9.2 mph14.8 kmh 30.45 in1031.2 mb 0.00 in0.0 mm 0.00 in0.0 mm 0.00 in0.0 mm
12:45 PM 60.6°F15.9°C 48.4°F9.1°C 64% 4.5 mph NW7.2 kmh NW 9.2 mph14.8 kmh 30.45 in1031.2 mb 0.00 in0.0 mm 0.00 in0.0 mm 0.00 in0.0 mm
12:50 PM 60.6°F15.9°C 48.4°F9.1°C 64% 4.5 mph WNW7.2 kmh WNW 9.2 mph14.8 kmh 30.45 in1031.2 mb 0.00 in0.0 mm 0.00 in0.0 mm 0.00 in0.0 mm
12:55 PM 60.8°F16.0°C 48.1°F8.9°C 63% 4.5 mph SSW7.2 kmh SSW 9.2 mph14.8 kmh 30.45 in1031.2 mb 0.00 in0.0 mm 0.00 in0.0 mm 0.00 in0.0 mm
01:00 PM 61.0°F16.1°C 47.9°F8.8°C 62% 3.1 mph SSW5.0 kmh SSW 14.5 mph23.3 kmh 30.44 in1030.8 mb 0.00 in0.0 mm 0.00 in0.0 mm 0.00 in0.0 mm
01:05 PM 61.3°F16.3°C 48.2°F9.0°C 62% 4.5 mph WNW7.2 kmh WNW 14.5 mph23.3 kmh 30.45 in1031.2 mb 0.00 in0.0 mm 0.00 in0.0 mm 0.00 in0.0 mm
01:10 PM 61.7°F16.5°C 48.6°F9.2°C 62% 9.8 mph WSW15.8 kmh WSW 13.6 mph21.9 kmh 30.44 in1030.8 mb 0.00 in0.0 mm 0.00 in0.0 mm 0.00 in0.0 mm
01:15 PM 61.5°F16.4°C 48.0°F8.9°C 61% 4.5 mph W7.2 kmh W 13.6 mph21.9 kmh 30.44 in1030.8 mb 0.00 in0.0 mm 0.00 in0.0 mm 0.00 in0.0 mm
01:20 PM 61.9°F16.6°C 48.3°F9.1°C 61% 3.1 mph WNW5.0 kmh WNW 13.6 mph21.9 kmh 30.44 in1030.8 mb 0.00 in0.0 mm 0.00 in0.0 mm 0.00 in0.0 mm
01:25 PM 62.6°F17.0°C 48.5°F9.2°C 60% 3.1 mph WSW5.0 kmh WSW 8.3 mph13.4 kmh 30.44 in1030.8 mb 0.00 in0.0 mm 0.00 in0.0 mm 0.00 in0.0 mm
01:30 PM 63.5°F17.5°C 48.5°F9.2°C 58% 3.8 mph SW6.1 kmh SW 9.8 mph15.8 kmh 30.44 in1030.8 mb 0.00 in0.0 mm 0.00 in0.0 mm 0.00 in0.0 mm
01:35 PM 63.0°F17.2°C 47.0°F8.3°C 56% 5.4 mph SW8.7 kmh SW 9.8 mph15.8 kmh 30.43 in1030.5 mb 0.00 in0.0 mm 0.00 in0.0 mm 0.00 in0.0 mm
01:40 PM 62.6°F17.0°C 47.6°F8.7°C 58% 6.0 mph NW9.7 kmh NW 9.2 mph14.8 kmh 30.43 in1030.5 mb 0.00 in0.0 mm 0.00 in0.0 mm 0.00 in0.0 mm
01:45 PM 62.4°F16.9°C 47.5°F8.6°C 58% 4.5 mph W7.2 kmh W 8.3 mph13.4 kmh 30.43 in1030.5 mb 0.00 in0.0 mm 0.00 in0.0 mm 0.00 in0.0 mm
01:50 PM 62.4°F16.9°C 48.4°F9.1°C 60% 7.6 mph NW12.2 kmh NW 10.7 mph17.2 kmh 30.43 in1030.5 mb 0.00 in0.0 mm 0.00 in0.0 mm 0.00 in0.0 mm
01:55 PM 62.2°F16.8°C 47.3°F8.5°C 58% 0.7 mph NW1.1 kmh NW 10.7 mph17.2 kmh 30.43 in1030.5 mb 0.00 in0.0 mm 0.00 in0.0 mm 0.00 in0.0 mm
02:00 PM 62.6°F17.0°C 47.6°F8.7°C 58% 1.6 mph WNW2.6 kmh WNW 12.1 mph19.5 kmh 30.42 in1030.1 mb 0.00 in0.0 mm 0.00 in0.0 mm 0.00 in0.0 mm
02:05 PM 63.1°F17.3°C 48.1°F8.9°C 58% 1.6 mph W2.6 kmh W 12.1 mph19.5 kmh 30.43 in1030.5 mb 0.00 in0.0 mm 0.00 in0.0 mm 0.00 in0.0 mm
02:10 PM 63.1°F17.3°C 48.1°F8.9°C 58% 3.1 mph NW5.0 kmh NW 10.7 mph17.2 kmh 30.43 in1030.5 mb 0.00 in0.0 mm 0.00 in0.0 mm 0.00 in0.0 mm
02:15 PM 63.0°F17.2°C 48.4°F9.1°C 59% 3.8 mph WNW6.1 kmh WNW 10.7 mph17.2 kmh 30.43 in1030.5 mb 0.00 in0.0 mm 0.00 in0.0 mm 0.00 in0.0 mm
02:20 PM 63.3°F17.4°C 48.8°F9.3°C 59% 1.6 mph W2.6 kmh W 8.3 mph13.4 kmh 30.43 in1030.5 mb 0.00 in0.0 mm 0.00 in0.0 mm 0.00 in0.0 mm
02:25 PM 64.0°F17.8°C 49.4°F9.7°C 59% 7.6 mph W12.2 kmh W 10.7 mph17.2 kmh 30.42 in1030.1 mb 0.00 in0.0 mm 0.00 in0.0 mm 0.00 in0.0 mm
02:30 PM 64.2°F17.9°C 48.7°F9.3°C 57% 6.9 mph W11.1 kmh W 10.7 mph17.2 kmh 30.42 in1030.1 mb 0.00 in0.0 mm 0.00 in0.0 mm 0.00 in0.0 mm
02:35 PM 63.5°F17.5°C 47.5°F8.6°C 56% 3.1 mph WSW5.0 kmh WSW 10.7 mph17.2 kmh 30.42 in1030.1 mb 0.00 in0.0 mm 0.00 in0.0 mm 0.00 in0.0 mm
02:40 PM 64.0°F17.8°C 49.4°F9.7°C 59% 7.6 mph W12.2 kmh W 10.7 mph17.2 kmh 30.42 in1030.1 mb 0.00 in0.0 mm 0.00 in0.0 mm 0.00 in0.0 mm
02:45 PM 64.8°F18.2°C 49.7°F9.8°C 58% 6.0 mph WNW9.7 kmh WNW 11.4 mph18.3 kmh 30.42 in1030.1 mb 0.00 in0.0 mm 0.00 in0.0 mm 0.00 in0.0 mm
02:50 PM 64.6°F18.1°C 48.5°F9.2°C 56% 8.3 mph WNW13.4 kmh WNW 15.2 mph24.5 kmh 30.42 in1030.1 mb 0.00 in0.0 mm 0.00 in0.0 mm 0.00 in0.0 mm
02:55 PM 64.2°F17.9°C 48.7°F9.3°C 57% 6.0 mph WNW9.7 kmh WNW 15.2 mph24.5 kmh 30.41 in1029.8 mb 0.00 in0.0 mm 0.00 in0.0 mm 0.00 in0.0 mm
03:00 PM 64.2°F17.9°C 48.7°F9.3°C 57% 4.5 mph WNW7.2 kmh WNW 15.2 mph24.5 kmh 30.41 in1029.8 mb 0.00 in0.0 mm 0.00 in0.0 mm 0.00 in0.0 mm
03:05 PM 64.6°F18.1°C 49.0°F9.4°C 57% 6.0 mph WNW9.7 kmh WNW 13.6 mph21.9 kmh 30.41 in1029.8 mb 0.00 in0.0 mm 0.00 in0.0 mm 0.00 in0.0 mm
03:10 PM 64.6°F18.1°C 49.0°F9.4°C 57% 6.0 mph W9.7 kmh W 13.6 mph21.9 kmh 30.41 in1029.8 mb 0.00 in0.0 mm 0.00 in0.0 mm 0.00 in0.0 mm
03:15 PM 64.4°F18.0°C 48.4°F9.1°C 56% 6.9 mph W11.1 kmh W 12.1 mph19.5 kmh 30.41 in1029.8 mb 0.00 in0.0 mm 0.00 in0.0 mm 0.00 in0.0 mm
03:20 PM 64.0°F17.8°C 48.0°F8.9°C 56% 3.8 mph WSW6.1 kmh WSW 12.1 mph19.5 kmh 30.41 in1029.8 mb 0.00 in0.0 mm 0.00 in0.0 mm 0.00 in0.0 mm
03:25 PM 64.0°F17.8°C 48.0°F8.9°C 56% 7.6 mph WSW12.2 kmh WSW 12.1 mph19.5 kmh 30.41 in1029.8 mb 0.00 in0.0 mm 0.00 in0.0 mm 0.00 in0.0 mm
03:30 PM 64.2°F17.9°C 48.7°F9.3°C 57% 5.4 mph SSW8.7 kmh SSW 11.4 mph18.3 kmh 30.41 in1029.8 mb 0.00 in0.0 mm 0.00 in0.0 mm 0.00 in0.0 mm
03:35 PM 64.0°F17.8°C 48.5°F9.2°C 57% 5.4 mph SW8.7 kmh SW 10.7 mph17.2 kmh 30.40 in1029.5 mb 0.00 in0.0 mm 0.00 in0.0 mm 0.00 in0.0 mm
03:40 PM 63.7°F17.6°C 48.2°F9.0°C 57% 4.5 mph WSW7.2 kmh WSW 10.7 mph17.2 kmh 30.40 in1029.5 mb 0.00 in0.0 mm 0.00 in0.0 mm 0.00 in0.0 mm
03:45 PM 63.7°F17.6°C 48.6°F9.2°C 58% 6.0 mph SW9.7 kmh SW 9.8 mph15.8 kmh 30.40 in1029.5 mb 0.00 in0.0 mm 0.00 in0.0 mm 0.00 in0.0 mm
03:50 PM 63.7°F17.6°C 48.2°F9.0°C 57% 9.8 mph SW15.8 kmh SW 13.6 mph21.9 kmh 30.40 in1029.5 mb 0.00 in0.0 mm 0.00 in0.0 mm 0.00 in0.0 mm
03:55 PM 63.7°F17.6°C 48.6°F9.2°C 58% 4.5 mph SW7.2 kmh SW 13.6 mph21.9 kmh 30.40 in1029.5 mb 0.00 in0.0 mm 0.00 in0.0 mm 0.00 in0.0 mm
04:00 PM 63.9°F17.7°C 48.8°F9.3°C 58% 4.5 mph SW7.2 kmh SW 13.0 mph20.9 kmh 30.40 in1029.5 mb 0.00 in0.0 mm 0.00 in0.0 mm 0.00 in0.0 mm
04:05 PM 64.6°F18.1°C 49.5°F9.7°C 58% 5.4 mph SSW8.7 kmh SSW 13.0 mph20.9 kmh 30.41 in1029.8 mb 0.00 in0.0 mm 0.00 in0.0 mm 0.00 in0.0 mm
04:10 PM 64.6°F18.1°C 49.0°F9.4°C 57% 6.9 mph SW11.1 kmh SW 9.8 mph15.8 kmh 30.40 in1029.5 mb 0.00 in0.0 mm 0.00 in0.0 mm 0.00 in0.0 mm
04:15 PM 64.2°F17.9°C 49.2°F9.6°C 58% 5.4 mph NW8.7 kmh NW 11.4 mph18.3 kmh 30.41 in1029.8 mb 0.00 in0.0 mm 0.00 in0.0 mm 0.00 in0.0 mm
04:20 PM 63.9°F17.7°C 48.3°F9.1°C 57% 6.9 mph NW11.1 kmh NW 11.4 mph18.3 kmh 30.41 in1029.8 mb 0.00 in0.0 mm 0.00 in0.0 mm 0.00 in0.0 mm
04:25 PM 63.5°F17.5°C 48.0°F8.9°C 57% 7.6 mph NW12.2 kmh NW 13.6 mph21.9 kmh 30.40 in1029.5 mb 0.00 in0.0 mm 0.00 in0.0 mm 0.00 in0.0 mm
04:30 PM 63.1°F17.3°C 48.1°F8.9°C 58% 5.4 mph NW8.7 kmh NW 13.6 mph21.9 kmh 30.41 in1029.8 mb 0.00 in0.0 mm 0.00 in0.0 mm 0.00 in0.0 mm
04:35 PM 63.7°F17.6°C 49.1°F9.5°C 59% 6.9 mph NW11.1 kmh NW 13.0 mph20.9 kmh 30.41 in1029.8 mb 0.00 in0.0 mm 0.00 in0.0 mm 0.00 in0.0 mm
04:40 PM 64.0°F17.8°C 49.0°F9.4°C 58% 5.4 mph NW8.7 kmh NW 13.0 mph20.9 kmh 30.41 in1029.8 mb 0.00 in0.0 mm 0.00 in0.0 mm 0.00 in0.0 mm
04:45 PM 63.5°F17.5°C 48.0°F8.9°C 57% 8.3 mph NW13.4 kmh NW 11.4 mph18.3 kmh 30.40 in1029.5 mb 0.00 in0.0 mm 0.00 in0.0 mm 0.00 in0.0 mm
04:50 PM 63.1°F17.3°C 48.1°F8.9°C 58% 5.4 mph NW8.7 kmh NW 11.4 mph18.3 kmh 30.41 in1029.8 mb 0.00 in0.0 mm 0.00 in0.0 mm 0.00 in0.0 mm
04:55 PM 62.8°F17.1°C 48.3°F9.1°C 59% 6.0 mph NW9.7 kmh NW 12.1 mph19.5 kmh 30.40 in1029.5 mb 0.00 in0.0 mm 0.00 in0.0 mm 0.00 in0.0 mm
05:00 PM 62.6°F17.0°C 48.5°F9.2°C 60% 4.5 mph NW7.2 kmh NW 12.1 mph19.5 kmh 30.40 in1029.5 mb 0.00 in0.0 mm 0.00 in0.0 mm 0.00 in0.0 mm
05:05 PM 62.4°F16.9°C 48.8°F9.3°C 61% 5.4 mph NW8.7 kmh NW 12.1 mph19.5 kmh 30.40 in1029.5 mb 0.00 in0.0 mm 0.00 in0.0 mm 0.00 in0.0 mm
05:10 PM 62.1°F16.7°C 48.9°F9.4°C 62% 6.0 mph WNW9.7 kmh WNW 10.7 mph17.2 kmh 30.40 in1029.5 mb 0.00 in0.0 mm 0.00 in0.0 mm 0.00 in0.0 mm
05:15 PM 62.2°F16.8°C 49.1°F9.5°C 62% 3.1 mph WNW5.0 kmh WNW 10.7 mph17.2 kmh 30.40 in1029.5 mb 0.00 in0.0 mm 0.00 in0.0 mm 0.00 in0.0 mm
05:20 PM 62.6°F17.0°C 49.0°F9.4°C 61% 6.9 mph WNW11.1 kmh WNW 10.7 mph17.2 kmh 30.40 in1029.5 mb 0.00 in0.0 mm 0.00 in0.0 mm 0.00 in0.0 mm
05:25 PM 62.6°F17.0°C 49.0°F9.4°C 61% 7.6 mph WNW12.2 kmh WNW 13.0 mph20.9 kmh 30.40 in1029.5 mb 0.00 in0.0 mm 0.00 in0.0 mm 0.00 in0.0 mm
05:30 PM 62.4°F16.9°C 49.2°F9.6°C 62% 3.8 mph NW6.1 kmh NW 13.0 mph20.9 kmh 30.40 in1029.5 mb 0.00 in0.0 mm 0.00 in0.0 mm 0.00 in0.0 mm
05:35 PM 62.4°F16.9°C 49.7°F9.8°C 63% 4.5 mph NW7.2 kmh NW 9.8 mph15.8 kmh 30.40 in1029.5 mb 0.00 in0.0 mm 0.00 in0.0 mm 0.00 in0.0 mm
05:40 PM 62.6°F17.0°C 49.4°F9.7°C 62% 6.9 mph NW11.1 kmh NW 9.8 mph15.8 kmh 30.40 in1029.5 mb 0.00 in0.0 mm 0.00 in0.0 mm 0.00 in0.0 mm
05:45 PM 62.4°F16.9°C 49.2°F9.6°C 62% 6.9 mph NW11.1 kmh NW 9.8 mph15.8 kmh 30.40 in1029.5 mb 0.00 in0.0 mm 0.00 in0.0 mm 0.00 in0.0 mm
05:50 PM 62.1°F16.7°C 49.3°F9.6°C 63% 4.5 mph NW7.2 kmh NW 9.2 mph14.8 kmh 30.39 in1029.1 mb 0.00 in0.0 mm 0.00 in0.0 mm 0.00 in0.0 mm
05:55 PM 62.2°F16.8°C 49.5°F9.7°C 63% 2.2 mph NW3.5 kmh NW 9.2 mph14.8 kmh 30.40 in1029.5 mb 0.00 in0.0 mm 0.00 in0.0 mm 0.00 in0.0 mm
06:00 PM 62.6°F17.0°C 49.4°F9.7°C 62% 4.5 mph NW7.2 kmh NW 6.0 mph9.7 kmh 30.40 in1029.5 mb 0.00 in0.0 mm 0.00 in0.0 mm 0.00 in0.0 mm
06:05 PM 62.6°F17.0°C 49.4°F9.7°C 62% 3.1 mph WNW5.0 kmh WNW 6.0 mph9.7 kmh 30.39 in1029.1 mb 0.00 in0.0 mm 0.00 in0.0 mm 0.00 in0.0 mm
06:10 PM 62.2°F16.8°C 49.5°F9.7°C 63% 5.4 mph WNW8.7 kmh WNW 7.6 mph12.2 kmh 30.39 in1029.1 mb 0.00 in0.0 mm 0.00 in0.0 mm 0.00 in0.0 mm
06:15 PM 61.7°F16.5°C 49.0°F9.4°C 63% 4.5 mph WNW7.2 kmh WNW 7.6 mph12.2 kmh 30.40 in1029.5 mb 0.00 in0.0 mm 0.00 in0.0 mm 0.00 in0.0 mm
06:20 PM 61.5°F16.4°C 48.8°F9.3°C 63% 6.0 mph WNW9.7 kmh WNW 9.2 mph14.8 kmh 30.40 in1029.5 mb 0.00 in0.0 mm 0.00 in0.0 mm 0.00 in0.0 mm
06:25 PM 61.2°F16.2°C 48.5°F9.2°C 63% 2.2 mph NW3.5 kmh NW 9.2 mph14.8 kmh 30.40 in1029.5 mb 0.00 in0.0 mm 0.00 in0.0 mm 0.00 in0.0 mm
06:30 PM 61.0°F16.1°C 48.7°F9.3°C 64% 2.2 mph NW3.5 kmh NW 9.2 mph14.8 kmh 30.40 in1029.5 mb 0.00 in0.0 mm 0.00 in0.0 mm 0.00 in0.0 mm
06:35 PM 60.6°F15.9°C 48.8°F9.3°C 65% 3.8 mph WNW6.1 kmh WNW 9.2 mph14.8 kmh 30.39 in1029.1 mb 0.00 in0.0 mm 0.00 in0.0 mm 0.00 in0.0 mm
06:40 PM 60.3°F15.7°C 48.5°F9.2°C 65% 3.8 mph NW6.1 kmh NW 7.6 mph12.2 kmh 30.39 in1029.1 mb 0.00 in0.0 mm 0.00 in0.0 mm 0.00 in0.0 mm
06:45 PM 60.3°F15.7°C 48.9°F9.4°C 66% 4.5 mph NW7.2 kmh NW 8.3 mph13.4 kmh 30.39 in1029.1 mb 0.00 in0.0 mm 0.00 in0.0 mm 0.00 in0.0 mm
06:50 PM 60.1°F15.6°C 49.1°F9.5°C 67% 3.8 mph WNW6.1 kmh WNW 8.3 mph13.4 kmh 30.40 in1029.5 mb 0.00 in0.0 mm 0.00 in0.0 mm 0.00 in0.0 mm
06:55 PM 60.1°F15.6°C 49.1°F9.5°C 67% 3.8 mph WNW6.1 kmh WNW 6.0 mph9.7 kmh 30.39 in1029.1 mb 0.00 in0.0 mm 0.00 in0.0 mm 0.00 in0.0 mm
07:00 PM 59.9°F15.5°C 48.9°F9.4°C 67% 6.0 mph WNW9.7 kmh WNW 8.3 mph13.4 kmh 30.39 in1029.1 mb 0.00 in0.0 mm 0.00 in0.0 mm 0.00 in0.0 mm
07:05 PM 59.9°F15.5°C 48.9°F9.4°C 67% 3.8 mph WNW6.1 kmh WNW 8.3 mph13.4 kmh 30.40 in1029.5 mb 0.00 in0.0 mm 0.00 in0.0 mm 0.00 in0.0 mm
07:10 PM 59.9°F15.5°C 48.9°F9.4°C 67% 2.2 mph NW3.5 kmh NW 8.3 mph13.4 kmh 30.40 in1029.5 mb 0.00 in0.0 mm 0.00 in0.0 mm 0.00 in0.0 mm
07:15 PM 59.7°F15.4°C 48.8°F9.3°C 67% 3.8 mph NW6.1 kmh NW 6.9 mph11.1 kmh 30.40 in1029.5 mb 0.00 in0.0 mm 0.00 in0.0 mm 0.00 in0.0 mm
07:20 PM 59.7°F15.4°C 49.2°F9.6°C 68% 3.8 mph NW6.1 kmh NW 6.0 mph9.7 kmh 30.40 in1029.5 mb 0.00 in0.0 mm 0.00 in0.0 mm 0.00 in0.0 mm
07:25 PM 59.7°F15.4°C 49.2°F9.6°C 68% 3.8 mph NW6.1 kmh NW 6.0 mph9.7 kmh 30.40 in1029.5 mb 0.00 in0.0 mm 0.00 in0.0 mm 0.00 in0.0 mm
07:30 PM 59.5°F15.3°C 49.0°F9.4°C 68% 3.8 mph NW6.1 kmh NW 8.3 mph13.4 kmh 30.40 in1029.5 mb 0.00 in0.0 mm 0.00 in0.0 mm 0.00 in0.0 mm
07:35 PM 59.5°F15.3°C 49.0°F9.4°C 68% 9.2 mph NW14.8 kmh NW 10.7 mph17.2 kmh 30.40 in1029.5 mb 0.00 in0.0 mm 0.00 in0.0 mm 0.00 in0.0 mm
07:40 PM 59.4°F15.2°C 48.8°F9.3°C 68% 5.4 mph NW8.7 kmh NW 10.7 mph17.2 kmh 30.40 in1029.5 mb 0.00 in0.0 mm 0.00 in0.0 mm 0.00 in0.0 mm
07:45 PM 59.4°F15.2°C 48.8°F9.3°C 68% 6.9 mph NW11.1 kmh NW 12.1 mph19.5 kmh 30.41 in1029.8 mb 0.00 in0.0 mm 0.00 in0.0 mm 0.00 in0.0 mm
07:50 PM 59.2°F15.1°C 49.0°F9.4°C 69% 8.3 mph NW13.4 kmh NW 13.0 mph20.9 kmh 30.41 in1029.8 mb 0.00 in0.0 mm 0.00 in0.0 mm 0.00 in0.0 mm
07:55 PM 58.8°F14.9°C 49.4°F9.7°C 71% 6.0 mph NW9.7 kmh NW 13.0 mph20.9 kmh 30.41 in1029.8 mb 0.00 in0.0 mm 0.00 in0.0 mm 0.00 in0.0 mm
08:00 PM 58.6°F14.8°C 49.3°F9.6°C 71% 8.3 mph NW13.4 kmh NW 10.7 mph17.2 kmh 30.41 in1029.8 mb 0.00 in0.0 mm 0.00 in0.0 mm 0.00 in0.0 mm
08:05 PM 58.5°F14.7°C 49.5°F9.7°C 72% 6.0 mph NW9.7 kmh NW 10.7 mph17.2 kmh 30.41 in1029.8 mb 0.00 in0.0 mm 0.00 in0.0 mm 0.00 in0.0 mm
08:10 PM 58.3°F14.6°C 49.7°F9.8°C 73% 4.5 mph NW7.2 kmh NW 10.7 mph17.2 kmh 30.41 in1029.8 mb 0.00 in0.0 mm 0.00 in0.0 mm 0.00 in0.0 mm
08:15 PM 58.1°F14.5°C 49.9°F9.9°C 74% 3.8 mph NW6.1 kmh NW 7.6 mph12.2 kmh 30.41 in1029.8 mb 0.00 in0.0 mm 0.00 in0.0 mm 0.00 in0.0 mm
08:20 PM 57.9°F14.4°C 49.7°F9.8°C 74% 1.6 mph WNW2.6 kmh WNW 7.6 mph12.2 kmh 30.40 in1029.5 mb 0.00 in0.0 mm 0.00 in0.0 mm 0.00 in0.0 mm
08:25 PM 57.7°F14.3°C 49.5°F9.7°C 74% 3.8 mph W6.1 kmh W 6.0 mph9.7 kmh 30.40 in1029.5 mb 0.00 in0.0 mm 0.00 in0.0 mm 0.00 in0.0 mm
08:30 PM 57.6°F14.2°C 49.3°F9.6°C 74% 3.1 mph W5.0 kmh W 6.9 mph11.1 kmh 30.40 in1029.5 mb 0.00 in0.0 mm 0.00 in0.0 mm 0.00 in0.0 mm
08:35 PM 57.6°F14.2°C 49.7°F9.8°C 75% 3.1 mph WNW5.0 kmh WNW 6.9 mph11.1 kmh 30.40 in1029.5 mb 0.00 in0.0 mm 0.00 in0.0 mm 0.00 in0.0 mm
08:40 PM 57.4°F14.1°C 49.5°F9.7°C 75% 2.2 mph NW3.5 kmh NW 6.0 mph9.7 kmh 30.40 in1029.5 mb 0.00 in0.0 mm 0.00 in0.0 mm 0.00 in0.0 mm
08:45 PM 57.4°F14.1°C 49.5°F9.7°C 75% 2.2 mph WNW3.5 kmh WNW 6.0 mph9.7 kmh 30.40 in1029.5 mb 0.00 in0.0 mm 0.00 in0.0 mm 0.00 in0.0 mm
08:50 PM 57.2°F14.0°C 49.4°F9.7°C 75% 2.2 mph W3.5 kmh W 5.4 mph8.7 kmh 30.40 in1029.5 mb 0.00 in0.0 mm 0.00 in0.0 mm 0.00 in0.0 mm
08:55 PM 57.2°F14.0°C 49.7°F9.8°C 76% 2.2 mph WNW3.5 kmh WNW 5.4 mph8.7 kmh 30.39 in1029.1 mb 0.00 in0.0 mm 0.00 in0.0 mm 0.00 in0.0 mm
09:00 PM 57.0°F13.9°C 49.9°F9.9°C 77% 3.1 mph W5.0 kmh W 5.4 mph8.7 kmh 30.40 in1029.5 mb 0.00 in0.0 mm 0.00 in0.0 mm 0.00 in0.0 mm
09:05 PM 57.0°F13.9°C 49.9°F9.9°C 77% 1.6 mph W2.6 kmh W 5.4 mph8.7 kmh 30.40 in1029.5 mb 0.00 in0.0 mm 0.00 in0.0 mm 0.00 in0.0 mm
09:10 PM 56.8°F13.8°C 49.7°F9.8°C 77% 3.8 mph W6.1 kmh W 4.5 mph7.2 kmh 30.39 in1029.1 mb 0.00 in0.0 mm 0.00 in0.0 mm 0.00 in0.0 mm
09:15 PM 56.8°F13.8°C 50.1°F10.1°C 78% 0.7 mph WSW1.1 kmh WSW 4.5 mph7.2 kmh 30.39 in1029.1 mb 0.00 in0.0 mm 0.00 in0.0 mm 0.00 in0.0 mm
09:20 PM 56.8°F13.8°C 50.1°F10.1°C 78% 3.8 mph WSW6.1 kmh WSW 5.4 mph8.7 kmh 30.39 in1029.1 mb 0.00 in0.0 mm 0.00 in0.0 mm 0.00 in0.0 mm
09:25 PM 56.7°F13.7°C 49.9°F9.9°C 78% 3.1 mph WSW5.0 kmh WSW 5.4 mph8.7 kmh 30.40 in1029.5 mb 0.00 in0.0 mm 0.00 in0.0 mm 0.00 in0.0 mm
09:30 PM 56.7°F13.7°C 49.9°F9.9°C 78% 3.1 mph WSW5.0 kmh WSW 6.0 mph9.7 kmh 30.40 in1029.5 mb 0.00 in0.0 mm 0.00 in0.0 mm 0.00 in0.0 mm
09:35 PM 56.5°F13.6°C 50.1°F10.1°C 79% 1.6 mph W2.6 kmh W 6.0 mph9.7 kmh 30.40 in1029.5 mb 0.00 in0.0 mm 0.00 in0.0 mm 0.00 in0.0 mm
09:40 PM 56.5°F13.6°C 50.1°F10.1°C 79% 3.1 mph WNW5.0 kmh WNW 5.4 mph8.7 kmh 30.40 in1029.5 mb 0.00 in0.0 mm 0.00 in0.0 mm 0.00 in0.0 mm
09:45 PM 56.3°F13.5°C 49.9°F9.9°C 79% 2.2 mph W3.5 kmh W 5.4 mph8.7 kmh 30.40 in1029.5 mb 0.00 in0.0 mm 0.00 in0.0 mm 0.00 in0.0 mm
09:50 PM 56.3°F13.5°C 50.2°F10.1°C 80% 3.1 mph W5.0 kmh W 6.0 mph9.7 kmh 30.40 in1029.5 mb 0.00 in0.0 mm 0.00 in0.0 mm 0.00 in0.0 mm
09:55 PM 56.3°F13.5°C 50.2°F10.1°C 80% 2.2 mph W3.5 kmh W 6.0 mph9.7 kmh 30.40 in1029.5 mb 0.00 in0.0 mm 0.00 in0.0 mm 0.00 in0.0 mm
10:00 PM 56.1°F13.4°C 50.0°F10.0°C 80% 1.6 mph W2.6 kmh W 4.5 mph7.2 kmh 30.40 in1029.5 mb 0.00 in0.0 mm 0.00 in0.0 mm 0.00 in0.0 mm
10:05 PM 56.1°F13.4°C 50.0°F10.0°C 80% 0.7 mph W1.1 kmh W 3.8 mph6.1 kmh 30.41 in1029.8 mb 0.00 in0.0 mm 0.00 in0.0 mm 0.00 in0.0 mm
10:10 PM 56.1°F13.4°C 50.0°F10.0°C 80% 3.1 mph W5.0 kmh W 4.5 mph7.2 kmh 30.40 in1029.5 mb 0.00 in0.0 mm 0.00 in0.0 mm 0.00 in0.0 mm
10:15 PM 56.1°F13.4°C 50.0°F10.0°C 80% 3.1 mph WSW5.0 kmh WSW 4.5 mph7.2 kmh 30.41 in1029.8 mb 0.00 in0.0 mm 0.00 in0.0 mm 0.00 in0.0 mm
10:20 PM 56.1°F13.4°C 50.4°F10.2°C 81% 1.6 mph WSW2.6 kmh WSW 4.5 mph7.2 kmh 30.41 in1029.8 mb 0.00 in0.0 mm 0.00 in0.0 mm 0.00 in0.0 mm
10:25 PM 56.1°F13.4°C 50.4°F10.2°C 81% 1.6 mph WSW2.6 kmh WSW 4.5 mph7.2 kmh 30.41 in1029.8 mb 0.00 in0.0 mm 0.00 in0.0 mm 0.00 in0.0 mm
10:30 PM 55.9°F13.3°C 50.2°F10.1°C 81% 2.2 mph WSW3.5 kmh WSW 3.8 mph6.1 kmh 30.41 in1029.8 mb 0.00 in0.0 mm 0.00 in0.0 mm 0.00 in0.0 mm
10:35 PM 55.9°F13.3°C 50.2°F10.1°C 81% 3.1 mph WSW5.0 kmh WSW 5.4 mph8.7 kmh 30.41 in1029.8 mb 0.00 in0.0 mm 0.00 in0.0 mm 0.00 in0.0 mm
10:40 PM 55.9°F13.3°C 50.2°F10.1°C 81% 1.6 mph WSW2.6 kmh WSW 6.0 mph9.7 kmh 30.41 in1029.8 mb 0.00 in0.0 mm 0.00 in0.0 mm 0.00 in0.0 mm
10:45 PM 55.9°F13.3°C 50.2°F10.1°C 81% 3.8 mph WSW6.1 kmh WSW 6.9 mph11.1 kmh 30.41 in1029.8 mb 0.00 in0.0 mm 0.00 in0.0 mm 0.00 in0.0 mm
10:50 PM 56.1°F13.4°C 50.4°F10.2°C 81% 3.1 mph SW5.0 kmh SW 6.9 mph11.1 kmh 30.41 in1029.8 mb 0.00 in0.0 mm 0.00 in0.0 mm 0.00 in0.0 mm
10:55 PM 55.9°F13.3°C 50.2°F10.1°C 81% 3.1 mph WSW5.0 kmh WSW 5.4 mph8.7 kmh 30.41 in1029.8 mb 0.00 in0.0 mm 0.00 in0.0 mm 0.00 in0.0 mm
11:00 PM 55.9°F13.3°C 50.5°F10.3°C 82% 3.8 mph W6.1 kmh W 5.4 mph8.7 kmh 30.41 in1029.8 mb 0.00 in0.0 mm 0.00 in0.0 mm 0.00 in0.0 mm
11:05 PM 55.6°F13.1°C 50.2°F10.1°C 82% 2.2 mph W3.5 kmh W 6.0 mph9.7 kmh 30.41 in1029.8 mb 0.00 in0.0 mm 0.00 in0.0 mm 0.00 in0.0 mm
11:10 PM 55.4°F13.0°C 50.3°F10.2°C 83% 3.1 mph WSW5.0 kmh WSW 7.6 mph12.2 kmh 30.42 in1030.1 mb 0.00 in0.0 mm 0.00 in0.0 mm 0.00 in0.0 mm
11:15 PM 55.4°F13.0°C 50.3°F10.2°C 83% 3.1 mph WSW5.0 kmh WSW 7.6 mph12.2 kmh 30.41 in1029.8 mb 0.00 in0.0 mm 0.00 in0.0 mm 0.00 in0.0 mm
11:20 PM 55.2°F12.9°C 50.2°F10.1°C 83% 3.1 mph W5.0 kmh W 6.9 mph11.1 kmh 30.42 in1030.1 mb 0.00 in0.0 mm 0.00 in0.0 mm 0.00 in0.0 mm
11:25 PM 55.2°F12.9°C 50.2°F10.1°C 83% 6.0 mph W9.7 kmh W 9.2 mph14.8 kmh 30.42 in1030.1 mb 0.00 in0.0 mm 0.00 in0.0 mm 0.00 in0.0 mm
11:30 PM 55.2°F12.9°C 50.2°F10.1°C 83% 6.0 mph W9.7 kmh W 10.7 mph17.2 kmh 30.42 in1030.1 mb 0.00 in0.0 mm 0.00 in0.0 mm 0.00 in0.0 mm
11:35 PM 55.0°F12.8°C 50.0°F10.0°C 83% 4.5 mph SW7.2 kmh SW 10.7 mph17.2 kmh 30.42 in1030.1 mb 0.00 in0.0 mm 0.00 in0.0 mm 0.00 in0.0 mm
11:40 PM 54.9°F12.7°C 49.8°F9.9°C 83% 3.8 mph WSW6.1 kmh WSW 9.8 mph15.8 kmh 30.42 in1030.1 mb 0.00 in0.0 mm 0.00 in0.0 mm 0.00 in0.0 mm
11:45 PM 54.7°F12.6°C 49.6°F9.8°C 83% 3.1 mph W5.0 kmh W 9.2 mph14.8 kmh 30.42 in1030.1 mb 0.00 in0.0 mm 0.00 in0.0 mm 0.00 in0.0 mm
11:50 PM 54.5°F12.5°C 49.5°F9.7°C 83% 4.5 mph WNW7.2 kmh WNW 9.2 mph14.8 kmh 30.42 in1030.1 mb 0.00 in0.0 mm 0.00 in0.0 mm 0.00 in0.0 mm
11:55 PM 54.3°F12.4°C 49.3°F9.6°C 83% 3.1 mph WNW5.0 kmh WNW 9.2 mph14.8 kmh 30.42 in1030.1 mb 0.00 in0.0 mm 0.00 in0.0 mm 0.00 in0.0 mm